createdAt,value
2022-10-09T00:00:15.719Z,85.53
2022-10-09T00:03:07.529Z,85.64
2022-10-09T00:05:39.649Z,85.65
2022-10-09T00:08:11.591Z,85.70
2022-10-09T00:10:45.196Z,85.57
2022-10-09T00:13:17.014Z,85.74
2022-10-09T00:15:49.318Z,85.69
2022-10-09T00:18:21.189Z,85.97
2022-10-09T00:20:52.846Z,85.63
2022-10-09T00:23:24.602Z,85.74
2022-10-09T00:25:58.374Z,85.46
2022-10-09T00:28:36.492Z,85.37
2022-10-09T00:31:11.691Z,85.48
2022-10-09T00:33:45.116Z,85.68
2022-10-09T00:36:19.237Z,85.70
2022-10-09T00:38:51.193Z,85.82
2022-10-09T00:41:26.092Z,85.93
2022-10-09T00:44:00.536Z,85.95
2022-10-09T00:46:40.756Z,86.04
2022-10-09T00:49:21.175Z,85.90
2022-10-09T00:51:56.344Z,85.75
2022-10-09T00:54:31.258Z,85.60
2022-10-09T00:57:04.622Z,85.68
2022-10-09T00:59:37.568Z,85.87
2022-10-09T01:02:09.567Z,85.82
2022-10-09T01:04:41.393Z,85.89
2022-10-09T01:07:29.255Z,86.09
2022-10-09T01:10:07.504Z,85.76
2022-10-09T01:12:49.010Z,85.84
2022-10-09T01:15:25.000Z,86.23
2022-10-09T01:18:06.452Z,86.13
2022-10-09T01:20:46.365Z,86.28
2022-10-09T01:23:43.229Z,86.35
2022-10-09T01:26:40.580Z,86.44
2022-10-09T01:29:14.612Z,86.43
2022-10-09T01:31:49.877Z,86.67
2022-10-09T01:34:24.692Z,86.70
2022-10-09T01:36:57.995Z,86.72
2022-10-09T01:39:30.889Z,86.34
2022-10-09T01:42:03.112Z,86.55
2022-10-09T01:44:35.628Z,86.32
2022-10-09T01:47:08.455Z,86.50
2022-10-09T01:49:51.424Z,86.24
2022-10-09T01:52:36.241Z,86.37
2022-10-09T01:55:33.696Z,86.49
2022-10-09T01:58:12.049Z,86.32
2022-10-09T02:00:47.943Z,86.42
2022-10-09T02:03:20.269Z,86.52
2022-10-09T02:05:53.824Z,86.46
2022-10-09T02:08:27.067Z,86.55
2022-10-09T02:11:01.558Z,86.60
2022-10-09T02:13:35.400Z,86.31
2022-10-09T02:16:14.029Z,86.18
2022-10-09T02:18:48.202Z,85.70
2022-10-09T02:21:25.347Z,85.74
2022-10-09T02:23:58.789Z,85.57
2022-10-09T02:26:30.596Z,85.16
2022-10-09T02:29:02.355Z,84.76
2022-10-09T02:31:38.436Z,84.29
2022-10-09T02:34:12.261Z,84.32
2022-10-09T02:36:44.163Z,84.42
2022-10-09T02:39:16.055Z,84.34
2022-10-09T02:41:47.748Z,84.22
2022-10-09T02:44:19.420Z,84.02
2022-10-09T02:46:51.171Z,84.05
2022-10-09T02:49:23.130Z,83.74
2022-10-09T02:51:55.031Z,83.24
2022-10-09T02:54:27.060Z,83.14
2022-10-09T02:56:58.816Z,83.05
2022-10-09T02:59:32.167Z,82.87
2022-10-09T03:02:04.694Z,82.64
2022-10-09T03:04:36.565Z,81.96
2022-10-09T03:07:08.561Z,82.04
2022-10-09T03:09:40.247Z,82.05
2022-10-09T03:12:12.159Z,82.16
2022-10-09T03:14:43.906Z,82.17
2022-10-09T03:17:15.694Z,82.15
2022-10-09T03:19:47.464Z,82.06
2022-10-09T03:22:19.317Z,82.06
2022-10-09T03:24:51.353Z,81.87
2022-10-09T03:27:23.434Z,82.00
2022-10-09T03:29:55.151Z,81.92
2022-10-09T03:32:27.346Z,82.23
2022-10-09T03:34:59.386Z,82.28
2022-10-09T03:37:31.709Z,82.41
2022-10-09T03:40:03.659Z,82.42
2022-10-09T03:42:35.419Z,82.57
2022-10-09T03:45:08.109Z,83.10
2022-10-09T03:47:39.892Z,83.50
2022-10-09T03:50:12.466Z,83.62
2022-10-09T03:52:44.172Z,83.70
2022-10-09T03:55:16.249Z,83.50
2022-10-09T03:57:48.007Z,83.33
2022-10-09T04:00:19.980Z,82.89
2022-10-09T04:02:54.578Z,82.84
2022-10-09T04:05:26.481Z,82.47
2022-10-09T04:07:58.410Z,82.41
2022-10-09T04:10:30.151Z,82.36
2022-10-09T04:13:02.170Z,81.96
2022-10-09T04:15:35.338Z,82.20
2022-10-09T04:18:07.561Z,82.38
2022-10-09T04:20:39.523Z,82.24
2022-10-09T04:23:12.469Z,82.12
2022-10-09T04:25:44.452Z,82.03
2022-10-09T04:28:16.467Z,81.98
2022-10-09T04:30:48.487Z,82.07
2022-10-09T04:33:20.769Z,82.09
2022-10-09T04:35:55.565Z,82.04
2022-10-09T04:38:27.933Z,81.95
2022-10-09T04:41:01.212Z,82.11
2022-10-09T04:43:33.655Z,82.06
2022-10-09T04:46:08.650Z,81.99
2022-10-09T04:48:44.782Z,82.16
2022-10-09T04:51:17.821Z,82.44
2022-10-09T04:53:49.775Z,82.48
2022-10-09T04:56:23.042Z,82.62
2022-10-09T04:58:55.023Z,82.74
2022-10-09T05:01:32.070Z,82.79
2022-10-09T05:04:07.329Z,82.95
2022-10-09T05:06:39.026Z,82.78
2022-10-09T05:09:10.821Z,82.88
2022-10-09T05:11:43.097Z,82.96
2022-10-09T05:14:14.907Z,82.96
2022-10-09T05:17:12.037Z,82.79
2022-10-09T05:19:38.963Z,82.64
2022-10-09T05:22:10.740Z,82.65
2022-10-09T05:24:42.754Z,82.95
2022-10-09T05:27:14.463Z,82.96
2022-10-09T05:29:46.219Z,83.09
2022-10-09T05:32:18.068Z,83.21
2022-10-09T05:34:49.754Z,83.26
2022-10-09T05:37:22.928Z,83.22
2022-10-09T05:39:54.774Z,83.28
2022-10-09T05:42:26.635Z,83.18
2022-10-09T05:44:58.514Z,83.04
2022-10-09T05:47:32.351Z,81.94
2022-10-09T05:50:04.129Z,80.60
2022-10-09T05:52:40.096Z,80.29
2022-10-09T05:55:12.251Z,80.22
2022-10-09T05:57:43.910Z,80.23
2022-10-09T06:00:17.095Z,80.01
2022-10-09T06:02:49.302Z,79.97
2022-10-09T06:05:21.572Z,79.96
2022-10-09T06:07:53.434Z,79.62
2022-10-09T06:10:27.090Z,79.42
2022-10-09T06:13:02.164Z,79.66
2022-10-09T06:15:34.258Z,79.85
2022-10-09T06:18:06.732Z,79.44
2022-10-09T06:20:38.790Z,79.25
2022-10-09T06:23:10.666Z,79.32
2022-10-09T06:25:51.168Z,78.83
2022-10-09T06:28:23.366Z,78.39
2022-10-09T06:30:55.256Z,78.40
2022-10-09T06:33:27.171Z,77.56
2022-10-09T06:36:09.669Z,77.28
2022-10-09T06:38:42.502Z,77.30
2022-10-09T06:41:16.249Z,77.13
2022-10-09T06:43:51.694Z,76.48
2022-10-09T06:46:25.118Z,76.49
2022-10-09T06:48:57.177Z,75.73
2022-10-09T06:51:30.181Z,75.20
2022-10-09T06:54:03.826Z,74.30
2022-10-09T06:56:36.015Z,74.39
2022-10-09T06:59:09.155Z,73.63
2022-10-09T07:01:41.504Z,73.79
2022-10-09T07:04:17.742Z,73.70
2022-10-09T07:06:49.575Z,72.95
2022-10-09T07:09:21.373Z,72.64
2022-10-09T07:11:53.207Z,72.43
2022-10-09T07:14:24.893Z,71.45
2022-10-09T07:16:56.791Z,71.13
2022-10-09T07:19:28.763Z,71.42
2022-10-09T07:22:00.752Z,70.76
2022-10-09T07:24:32.511Z,70.38
2022-10-09T07:27:04.485Z,70.44
2022-10-09T07:29:36.339Z,70.09
2022-10-09T07:32:10.470Z,70.10
2022-10-09T07:34:42.553Z,69.19
2022-10-09T07:37:14.427Z,68.93
2022-10-09T07:39:46.179Z,69.15
2022-10-09T07:42:17.954Z,68.80
2022-10-09T07:44:49.793Z,67.75
2022-10-09T07:47:21.720Z,66.38
2022-10-09T07:49:53.725Z,66.26
2022-10-09T07:52:27.949Z,67.28
2022-10-09T07:54:59.597Z,67.46
2022-10-09T07:57:31.437Z,67.27
2022-10-09T08:00:03.408Z,66.85
2022-10-09T08:02:45.035Z,67.14
2022-10-09T08:05:17.082Z,66.74
2022-10-09T08:07:48.820Z,66.78
2022-10-09T08:10:21.020Z,66.92
2022-10-09T08:12:52.874Z,66.74
2022-10-09T08:15:24.749Z,66.49
2022-10-09T08:17:57.154Z,66.13
2022-10-09T08:20:28.959Z,65.37
2022-10-09T08:23:00.822Z,62.03
2022-10-09T08:25:34.972Z,61.61
2022-10-09T08:28:10.251Z,62.10
2022-10-09T08:30:42.084Z,63.26
2022-10-09T08:33:14.207Z,62.86
2022-10-09T08:35:45.941Z,61.77
2022-10-09T08:38:44.910Z,61.22
2022-10-09T08:41:15.283Z,60.11
2022-10-09T08:43:50.306Z,58.87
2022-10-09T08:46:25.938Z,59.34
2022-10-09T08:48:59.603Z,60.45
2022-10-09T08:51:36.322Z,59.89
2022-10-09T08:54:20.495Z,60.10
2022-10-09T08:56:53.870Z,60.25
2022-10-09T08:59:27.488Z,60.89
2022-10-09T09:02:08.976Z,60.55
2022-10-09T09:04:59.689Z,60.95
2022-10-09T09:07:36.637Z,61.79
2022-10-09T09:10:18.154Z,61.98
2022-10-09T09:12:56.202Z,60.96
2022-10-09T09:15:44.909Z,61.07
2022-10-09T09:18:27.547Z,59.84
2022-10-09T09:21:05.775Z,59.55
2022-10-09T09:23:42.939Z,59.29
2022-10-09T09:26:19.096Z,58.98
2022-10-09T09:28:57.057Z,58.82
2022-10-09T09:31:29.844Z,58.67
2022-10-09T09:34:06.302Z,59.22
2022-10-09T09:36:45.856Z,58.58
2022-10-09T09:40:23.751Z,58.23
2022-10-09T09:42:16.514Z,57.54
2022-10-09T09:44:57.187Z,57.75
2022-10-09T09:47:34.598Z,55.81
2022-10-09T09:50:23.428Z,54.57
2022-10-09T09:53:08.314Z,54.43
2022-10-09T09:55:40.345Z,56.27
2022-10-09T09:58:18.341Z,56.63
2022-10-09T10:00:57.237Z,55.83
2022-10-09T10:03:29.266Z,55.89
2022-10-09T10:06:01.001Z,56.00
2022-10-09T10:08:35.049Z,56.07
2022-10-09T10:11:09.381Z,54.92
2022-10-09T10:13:49.758Z,55.20
2022-10-09T10:16:25.944Z,54.37
2022-10-09T10:18:59.416Z,53.44
2022-10-09T10:21:48.014Z,54.47
2022-10-09T10:24:27.726Z,55.05
2022-10-09T10:27:03.389Z,55.23
2022-10-09T10:29:39.782Z,55.01
2022-10-09T10:32:18.137Z,53.83
2022-10-09T10:34:55.049Z,52.74
2022-10-09T10:37:33.122Z,52.40
2022-10-09T10:40:13.743Z,53.16
2022-10-09T10:43:00.096Z,52.97
2022-10-09T10:45:35.724Z,51.93
2022-10-09T10:48:11.355Z,52.21
2022-10-09T10:50:49.960Z,50.22
2022-10-09T10:53:29.505Z,51.13
2022-10-09T10:56:06.925Z,50.10
2022-10-09T10:58:47.238Z,49.37
2022-10-09T11:01:30.203Z,49.61
2022-10-09T11:04:23.602Z,49.84
2022-10-09T11:07:06.239Z,50.04
2022-10-09T11:09:47.546Z,49.93
2022-10-09T11:12:46.741Z,50.21
2022-10-09T11:15:30.886Z,50.92
2022-10-09T11:18:16.816Z,51.45
2022-10-09T11:21:03.545Z,51.56
2022-10-09T11:23:47.418Z,51.29
2022-10-09T11:26:27.908Z,51.61
2022-10-09T11:29:03.946Z,51.96
2022-10-09T11:31:42.656Z,50.95
2022-10-09T11:34:21.317Z,50.43
2022-10-09T11:36:53.349Z,50.34
2022-10-09T11:39:27.747Z,49.92
2022-10-09T11:42:01.264Z,49.22
2022-10-09T11:44:45.296Z,50.42
2022-10-09T11:47:25.501Z,50.19
2022-10-09T11:50:12.886Z,48.89
2022-10-09T11:52:55.802Z,48.16
2022-10-09T11:55:29.411Z,47.95
2022-10-09T11:58:21.243Z,47.80
2022-10-09T12:00:55.117Z,49.45
2022-10-09T12:03:33.578Z,50.50
2022-10-09T12:06:14.431Z,51.98
2022-10-09T12:08:57.787Z,52.38
2022-10-09T12:11:30.595Z,52.03
2022-10-09T12:14:04.794Z,52.38
2022-10-09T12:16:43.572Z,52.08
2022-10-09T12:19:28.167Z,51.82
2022-10-09T12:22:06.765Z,51.47
2022-10-09T12:24:44.884Z,51.75
2022-10-09T12:27:23.020Z,51.36
2022-10-09T12:29:57.445Z,51.26
2022-10-09T12:32:33.360Z,50.95
2022-10-09T12:35:13.570Z,51.27
2022-10-09T12:37:45.396Z,50.41
2022-10-09T12:40:19.485Z,50.31
2022-10-09T12:42:53.938Z,51.21
2022-10-09T12:45:30.009Z,51.47
2022-10-09T12:48:12.628Z,50.87
2022-10-09T12:50:44.444Z,50.32
2022-10-09T12:53:18.600Z,50.19
2022-10-09T12:55:52.609Z,49.99
2022-10-09T12:58:27.790Z,49.81
2022-10-09T13:01:02.516Z,49.56
2022-10-09T13:03:38.900Z,49.39
2022-10-09T13:06:16.743Z,50.23
2022-10-09T13:08:53.187Z,49.38
2022-10-09T13:11:31.582Z,49.81
2022-10-09T13:14:03.555Z,49.78
2022-10-09T13:16:44.739Z,49.89
2022-10-09T13:19:30.130Z,49.98
2022-10-09T13:22:17.208Z,49.78
2022-10-09T13:24:51.465Z,49.43
2022-10-09T13:27:24.955Z,49.66
2022-10-09T13:29:57.285Z,48.40
2022-10-09T13:32:28.981Z,48.90
2022-10-09T13:35:00.620Z,49.99
2022-10-09T13:37:32.481Z,50.50
2022-10-09T13:40:05.969Z,51.33
2022-10-09T13:42:39.967Z,51.50
2022-10-09T13:45:13.104Z,52.24
2022-10-09T13:47:44.908Z,52.81
2022-10-09T13:50:17.921Z,53.69
2022-10-09T13:52:49.673Z,53.68
2022-10-09T13:55:21.512Z,53.14
2022-10-09T13:57:54.024Z,53.51
2022-10-09T14:00:25.953Z,52.65
2022-10-09T14:02:57.726Z,51.93
2022-10-09T14:05:29.405Z,51.30
2022-10-09T14:08:01.088Z,51.19
2022-10-09T14:10:33.358Z,51.09
2022-10-09T14:13:05.152Z,50.67
2022-10-09T14:15:40.108Z,50.78
2022-10-09T14:18:11.929Z,51.55
2022-10-09T14:20:43.611Z,51.26
2022-10-09T14:23:15.635Z,51.53
2022-10-09T14:25:49.973Z,51.17
2022-10-09T14:28:21.709Z,50.99
2022-10-09T14:30:53.425Z,50.93
2022-10-09T14:33:25.113Z,50.65
2022-10-09T14:35:56.806Z,50.53
2022-10-09T14:38:28.647Z,50.59
2022-10-09T14:41:00.653Z,50.66
2022-10-09T14:43:32.385Z,50.51
2022-10-09T14:46:09.230Z,50.78
2022-10-09T14:48:42.004Z,50.81
2022-10-09T14:51:17.365Z,50.62
2022-10-09T14:53:49.424Z,50.56
2022-10-09T14:56:22.193Z,50.82
2022-10-09T14:58:54.219Z,51.49
2022-10-09T15:01:26.242Z,52.19
2022-10-09T15:03:58.503Z,52.78
2022-10-09T15:06:30.341Z,53.91
2022-10-09T15:09:05.498Z,54.71
2022-10-09T15:11:38.217Z,55.64
2022-10-09T15:14:10.102Z,56.21
2022-10-09T15:16:42.383Z,56.40
2022-10-09T15:19:14.431Z,56.85
2022-10-09T15:21:46.172Z,57.30
2022-10-09T15:24:17.858Z,57.80
2022-10-09T15:26:49.485Z,58.05
2022-10-09T15:29:21.342Z,58.40
2022-10-09T15:31:53.315Z,58.65
2022-10-09T15:34:25.068Z,58.92
2022-10-09T15:36:56.721Z,59.24
2022-10-09T15:39:28.426Z,59.65
2022-10-09T15:42:00.156Z,60.35
2022-10-09T15:44:32.415Z,60.47
2022-10-09T15:47:04.137Z,61.52
2022-10-09T15:49:35.871Z,62.22
2022-10-09T15:52:07.550Z,62.74
2022-10-09T15:54:39.417Z,64.06
2022-10-09T15:57:11.635Z,64.61
2022-10-09T15:59:43.467Z,64.88
2022-10-09T16:02:15.382Z,65.02
2022-10-09T16:04:47.415Z,65.41
2022-10-09T16:07:19.091Z,66.01
2022-10-09T16:09:50.997Z,66.34
2022-10-09T16:12:22.898Z,66.80
2022-10-09T16:14:54.582Z,66.99
2022-10-09T16:17:26.724Z,67.05
2022-10-09T16:19:58.472Z,67.19
2022-10-09T16:22:30.196Z,67.60
2022-10-09T16:25:02.790Z,67.94
2022-10-09T16:27:35.014Z,68.43
2022-10-09T16:30:08.526Z,68.74
2022-10-09T16:32:40.679Z,69.20
2022-10-09T16:35:12.708Z,69.48
2022-10-09T16:37:44.616Z,69.70
2022-10-09T16:40:16.533Z,69.96
2022-10-09T16:42:48.479Z,70.78
2022-10-09T16:45:20.598Z,70.90
2022-10-09T16:47:52.766Z,71.21
2022-10-09T16:50:24.471Z,71.60
2022-10-09T16:52:56.828Z,72.00
2022-10-09T16:55:28.826Z,72.19
2022-10-09T16:58:00.547Z,72.51
2022-10-09T17:00:32.376Z,72.72
2022-10-09T17:03:04.086Z,73.01
2022-10-09T17:05:40.751Z,73.26
2022-10-09T17:08:12.579Z,73.32
2022-10-09T17:10:45.365Z,73.55
2022-10-09T17:13:17.216Z,73.89
2022-10-09T17:15:48.972Z,74.21
2022-10-09T17:18:21.190Z,74.42
2022-10-09T17:20:53.430Z,74.76
2022-10-09T17:23:25.076Z,74.81
2022-10-09T17:25:57.041Z,75.18
2022-10-09T17:28:28.839Z,75.47
2022-10-09T17:31:02.527Z,75.45
2022-10-09T17:33:34.842Z,75.47
2022-10-09T17:36:07.751Z,75.57
2022-10-09T17:38:40.247Z,75.82
2022-10-09T17:41:13.775Z,75.78
2022-10-09T17:43:46.139Z,75.88
2022-10-09T17:46:18.466Z,76.19
2022-10-09T17:48:53.418Z,76.38
2022-10-09T17:51:27.244Z,76.55
2022-10-09T17:54:02.735Z,76.63
2022-10-09T17:56:36.123Z,76.96
2022-10-09T17:59:08.750Z,77.11
2022-10-09T18:01:40.822Z,77.18
2022-10-09T18:04:17.056Z,77.25
2022-10-09T18:06:48.730Z,77.69
2022-10-09T18:09:20.447Z,77.59
2022-10-09T18:11:52.369Z,77.70
2022-10-09T18:14:24.234Z,77.94
2022-10-09T18:16:55.917Z,78.08
2022-10-09T18:19:27.639Z,78.27
2022-10-09T18:21:59.436Z,78.48
2022-10-09T18:24:31.201Z,78.47
2022-10-09T18:27:03.149Z,78.35
2022-10-09T18:29:34.991Z,78.35
2022-10-09T18:32:09.666Z,78.55
2022-10-09T18:34:46.319Z,78.64
2022-10-09T18:37:20.039Z,78.79
2022-10-09T18:39:51.894Z,78.85
2022-10-09T18:42:23.633Z,78.86
2022-10-09T18:44:55.417Z,78.76
2022-10-09T18:47:32.771Z,79.09
2022-10-09T18:50:09.640Z,79.03
2022-10-09T18:52:42.644Z,79.14
2022-10-09T18:55:19.619Z,79.21
2022-10-09T18:57:51.510Z,79.07
2022-10-09T19:00:23.289Z,79.10
2022-10-09T19:02:55.105Z,79.26
2022-10-09T19:05:27.518Z,79.51
2022-10-09T19:07:59.587Z,79.70
2022-10-09T19:10:31.444Z,79.96
2022-10-09T19:13:03.179Z,80.10
2022-10-09T19:15:35.282Z,80.14
2022-10-09T19:18:07.510Z,80.04
2022-10-09T19:20:41.187Z,80.39
2022-10-09T19:23:14.683Z,80.60
2022-10-09T19:25:51.369Z,80.80
2022-10-09T19:28:24.735Z,80.62
2022-10-09T19:30:56.608Z,80.38
2022-10-09T19:33:29.541Z,80.27
2022-10-09T19:36:03.696Z,80.43
2022-10-09T19:38:36.728Z,80.14
2022-10-09T19:41:13.123Z,80.10
2022-10-09T19:43:45.356Z,80.30
2022-10-09T19:46:20.128Z,80.34
2022-10-09T19:48:51.996Z,80.20
2022-10-09T19:51:26.506Z,80.26
2022-10-09T19:53:59.215Z,80.21
2022-10-09T19:56:34.334Z,80.02
2022-10-09T19:59:08.730Z,80.11
2022-10-09T20:01:41.036Z,80.38
2022-10-09T20:04:13.631Z,80.43
2022-10-09T20:06:48.733Z,80.34
2022-10-09T20:09:21.470Z,80.52
2022-10-09T20:11:53.311Z,80.59
2022-10-09T20:14:25.351Z,80.52
2022-10-09T20:16:57.185Z,80.58
2022-10-09T20:19:31.018Z,80.62
2022-10-09T20:22:02.755Z,80.57
2022-10-09T20:24:34.413Z,80.70
2022-10-09T20:27:06.179Z,80.69
2022-10-09T20:29:38.119Z,80.77
2022-10-09T20:32:12.210Z,80.49
2022-10-09T20:34:44.321Z,80.56
2022-10-09T20:37:16.108Z,80.53
2022-10-09T20:39:49.107Z,80.40
2022-10-09T20:42:20.850Z,80.70
2022-10-09T20:44:52.696Z,80.69
2022-10-09T20:47:24.588Z,80.77
2022-10-09T20:49:56.310Z,80.78
2022-10-09T20:52:28.111Z,80.87
2022-10-09T20:55:00.102Z,80.80
2022-10-09T20:57:31.834Z,80.76
2022-10-09T21:00:04.492Z,80.80
2022-10-09T21:02:36.284Z,80.80
2022-10-09T21:05:09.297Z,81.22
2022-10-09T21:07:41.031Z,81.38
2022-10-09T21:10:15.076Z,81.44
2022-10-09T21:12:46.808Z,81.53
2022-10-09T21:15:18.762Z,81.60
2022-10-09T21:17:53.694Z,81.55
2022-10-09T21:20:25.373Z,81.75
2022-10-09T21:22:57.121Z,81.64
2022-10-09T21:25:28.994Z,81.55
2022-10-09T21:28:01.054Z,81.70
2022-10-09T21:30:41.226Z,81.60
2022-10-09T21:33:13.968Z,81.64
2022-10-09T21:35:47.960Z,81.75
2022-10-09T21:38:22.078Z,81.52
2022-10-09T21:40:53.937Z,81.69
2022-10-09T21:43:25.631Z,81.86
2022-10-09T21:45:57.344Z,81.96
2022-10-09T21:48:29.083Z,81.80
2022-10-09T21:51:00.882Z,81.78
2022-10-09T21:53:32.560Z,81.78
2022-10-09T21:56:06.711Z,81.57
2022-10-09T21:58:38.902Z,81.37
2022-10-09T22:01:11.331Z,81.43
2022-10-09T22:03:45.331Z,81.24
2022-10-09T22:06:19.349Z,81.14
2022-10-09T22:08:51.333Z,81.44
2022-10-09T22:11:23.067Z,81.58
2022-10-09T22:13:57.269Z,81.86
2022-10-09T22:16:28.980Z,81.82
2022-10-09T22:19:01.271Z,82.01
2022-10-09T22:21:32.924Z,82.13
2022-10-09T22:24:05.517Z,81.88
2022-10-09T22:26:38.605Z,81.86
2022-10-09T22:29:10.564Z,81.68
2022-10-09T22:31:42.921Z,81.61
2022-10-09T22:34:14.749Z,81.78
2022-10-09T22:36:47.266Z,81.71
2022-10-09T22:39:19.081Z,81.66
2022-10-09T22:41:50.773Z,81.75
2022-10-09T22:44:22.618Z,81.76
2022-10-09T22:46:54.616Z,81.67
2022-10-09T22:49:27.550Z,81.94
2022-10-09T22:51:59.310Z,81.95
2022-10-09T22:54:30.977Z,82.19
2022-10-09T22:57:05.055Z,82.15
2022-10-09T22:59:36.863Z,82.14
2022-10-09T23:02:09.020Z,81.99
2022-10-09T23:04:40.833Z,81.88
2022-10-09T23:07:12.583Z,81.82
2022-10-09T23:09:44.245Z,82.16
2022-10-09T23:12:16.087Z,82.17
2022-10-09T23:14:49.334Z,82.28
2022-10-09T23:17:21.059Z,82.28
2022-10-09T23:19:52.700Z,82.14
2022-10-09T23:22:24.396Z,82.09
2022-10-09T23:24:57.025Z,82.06
2022-10-09T23:27:28.880Z,82.14
2022-10-09T23:30:01.039Z,81.88
2022-10-09T23:32:34.781Z,81.91
2022-10-09T23:35:07.325Z,82.06
2022-10-09T23:37:39.058Z,82.11
2022-10-09T23:40:11.868Z,81.94
2022-10-09T23:42:44.062Z,81.93
2022-10-09T23:45:16.122Z,81.87
2022-10-09T23:47:47.822Z,82.17
2022-10-09T23:50:19.829Z,82.39
2022-10-09T23:52:51.961Z,82.91
2022-10-09T23:55:24.028Z,82.71
2022-10-09T23:57:55.691Z,82.56
